Time;durP1;ratioP1;P1;durP2;ratioP2;P2;SDS_P1;SDS_P2;PMS_P1;PMS_P2;Temp;Humidity;BMP_temperature;BMP_pressure;BME280_temperature;BME280_humidity;BME280_pressure;Samples;Min_cycle;Max_cycle;Signal;HPM_P1;HPM_P2
2021/08/06 00:00:54;;;;;;;6.70;4.20;;;;;;;;;;4958446;29;20134;-91
2021/08/06 00:03:20;;;;;;;6.47;4.10;;;;;;;;;;4957921;29;20082;-92
2021/08/06 00:05:47;;;;;;;6.70;4.50;;;;;;;;;;4957602;29;20023;-91
2021/08/06 00:08:13;;;;;;;8.20;4.15;;;;;;;;;;4957317;29;20031;-89
2021/08/06 00:10:39;;;;;;;5.82;4.03;;;;;;;;;;4957334;29;20039;-89
2021/08/06 00:13:05;;;;;;;7.32;4.63;;;;;;;;;;4957711;29;20085;-83
2021/08/06 00:15:31;;;;;;;5.85;4.13;;;;;;;;;;4957112;29;20027;-90
2021/08/06 00:17:58;;;;;;;6.40;4.40;;;;;;;;;;4956958;29;20029;-91
2021/08/06 00:20:24;;;;;;;8.77;4.47;;;;;;;;;;4957141;29;20055;-90
2021/08/06 00:22:50;;;;;;;6.53;4.50;;;;;;;;;;4957921;29;20023;-91
2021/08/06 00:25:16;;;;;;;6.30;4.03;;;;;;;;;;4957393;29;20039;-91
2021/08/06 00:27:42;;;;;;;11.57;3.97;;;;;;;;;;4957020;29;20027;-93
2021/08/06 00:30:08;;;;;;;6.35;3.85;;;;;;;;;;4956796;29;20035;-87
2021/08/06 00:32:34;;;;;;;8.07;4.03;;;;;;;;;;4957596;29;20027;-86
2021/08/06 00:35:01;;;;;;;7.00;4.03;;;;;;;;;;4957436;29;20031;-94
2021/08/06 00:37:27;;;;;;;5.82;3.90;;;;;;;;;;4957084;28;20031;-92
2021/08/06 00:39:53;;;;;;;6.53;4.05;;;;;;;;;;4957953;29;20024;-91
2021/08/06 00:42:19;;;;;;;11.02;3.80;;;;;;;;;;4957727;29;20031;-92
2021/08/06 00:44:45;;;;;;;9.63;4.13;;;;;;;;;;4956445;29;20058;-85
2021/08/06 00:47:12;;;;;;;9.02;3.97;;;;;;;;;;4957968;29;20547;-92
2021/08/06 00:49:38;;;;;;;9.38;3.85;;;;;;;;;;4957150;29;20039;-86
2021/08/06 00:52:04;;;;;;;5.93;4.07;;;;;;;;;;4956624;29;20043;-89
2021/08/06 00:54:30;;;;;;;8.85;4.20;;;;;;;;;;4956729;29;20165;-92
2021/08/06 00:56:56;;;;;;;7.43;4.38;;;;;;;;;;4956678;29;20033;-92
2021/08/06 00:59:22;;;;;;;7.57;4.38;;;;;;;;;;4956810;29;20037;-90
2021/08/06 01:01:54;;;;;;;6.30;4.35;;;;;;;;;;4956213;29;20078;-91
2021/08/06 01:04:26;;;;;;;7.28;3.92;;;;;;;;;;4956502;29;20508;-89
2021/08/06 01:06:59;;;;;;;8.95;3.80;;;;;;;;;;4962891;29;20102;-95
2021/08/06 01:09:28;;;;;;;6.00;3.90;;;;;;;;;;4961250;29;20034;-96
2021/08/06 01:11:58;;;;;;;7.03;4.45;;;;;;;;;;4964151;29;20043;-94
2021/08/06 01:14:30;;;;;;;9.13;4.90;;;;;;;;;;4968383;29;20031;-92
2021/08/06 01:16:59;;;;;;;9.30;4.10;;;;;;;;;;4967560;29;20031;-96
2021/08/06 01:19:28;;;;;;;7.43;4.28;;;;;;;;;;4961439;29;20512;-86
2021/08/06 01:22:03;;;;;;;6.25;3.90;;;;;;;;;;4959218;29;20054;-95
2021/08/06 01:24:33;;;;;;;11.00;4.45;;;;;;;;;;4958408;29;20091;-88
2021/08/06 01:27:00;;;;;;;5.68;3.70;;;;;;;;;;4959431;29;20085;-95
2021/08/06 01:29:26;;;;;;;7.47;3.83;;;;;;;;;;4960271;29;20472;-96
2021/08/06 01:31:53;;;;;;;5.45;3.63;;;;;;;;;;4956368;29;20035;-94
2021/08/06 01:34:19;;;;;;;9.85;3.88;;;;;;;;;;4957413;29;20396;-93
2021/08/06 01:36:45;;;;;;;7.07;3.97;;;;;;;;;;4957944;29;20034;-83
2021/08/06 01:39:12;;;;;;;13.00;3.92;;;;;;;;;;4959484;29;20073;-93
2021/08/06 01:41:50;;;;;;;10.07;4.07;;;;;;;;;;4958281;29;20038;-93
2021/08/06 01:44:28;;;;;;;8.38;4.03;;;;;;;;;;4961205;29;20121;-94
2021/08/06 01:47:02;;;;;;;6.20;3.80;;;;;;;;;;4960381;28;20027;-95
2021/08/06 01:49:36;;;;;;;5.32;3.60;;;;;;;;;;4958521;29;20027;-94
2021/08/06 01:52:02;;;;;;;;;;;;;;;;;;4958001;29;20031;-92
2021/08/06 01:54:32;;;;;;;5.43;3.53;;;;;;;;;;4956384;29;19906;-94
2021/08/06 01:56:59;;;;;;;7.50;4.00;;;;;;;;;;4957265;29;20023;-95
2021/08/06 01:59:27;;;;;;;5.45;3.70;;;;;;;;;;4956031;29;20031;-95
2021/08/06 02:01:54;;;;;;;5.60;3.60;;;;;;;;;;4958115;28;20034;-96
2021/08/06 02:04:21;;;;;;;7.85;4.00;;;;;;;;;;4957567;29;20032;-93
2021/08/06 02:06:47;;;;;;;6.65;4.07;;;;;;;;;;4956719;29;20030;-92
2021/08/06 02:09:16;;;;;;;5.85;3.70;;;;;;;;;;4955642;29;20481;-96
2021/08/06 02:11:43;;;;;;;7.70;3.97;;;;;;;;;;4955371;29;20039;-93
2021/08/06 02:14:10;;;;;;;5.82;3.30;;;;;;;;;;4959845;29;20023;-96
2021/08/06 02:16:37;;;;;;;4.50;3.28;;;;;;;;;;4957102;29;20023;-94
2021/08/06 02:19:06;;;;;;;4.15;3.13;;;;;;;;;;4956105;29;20027;-93
2021/08/06 02:21:33;;;;;;;6.30;3.05;;;;;;;;;;4958382;29;20023;-94
2021/08/06 02:24:03;;;;;;;9.68;3.22;;;;;;;;;;4955349;29;20023;-95
2021/08/06 02:26:31;;;;;;;6.22;4.00;;;;;;;;;;4957282;29;20480;-92
2021/08/06 02:28:57;;;;;;;7.35;3.92;;;;;;;;;;4956204;29;20051;-94
2021/08/06 02:31:25;;;;;;;10.10;4.00;;;;;;;;;;4959073;29;20129;-94
2021/08/06 02:33:52;;;;;;;5.95;3.55;;;;;;;;;;4955228;29;20035;-92
2021/08/06 02:36:18;;;;;;;6.97;3.75;;;;;;;;;;4963196;29;20055;-95
2021/08/06 02:38:45;;;;;;;10.23;3.38;;;;;;;;;;4960342;29;20035;-94
2021/08/06 02:41:11;;;;;;;8.48;3.60;;;;;;;;;;4959626;29;20061;-95
2021/08/06 02:43:39;;;;;;;4.88;3.30;;;;;;;;;;4955528;29;20034;-96
2021/08/06 02:46:06;;;;;;;6.00;3.42;;;;;;;;;;4956082;29;20023;-93
2021/08/06 02:48:32;;;;;;;5.50;3.20;;;;;;;;;;4956604;29;20028;-93
2021/08/06 02:50:58;;;;;;;5.00;3.30;;;;;;;;;;4955255;29;20058;-93
2021/08/06 02:53:28;;;;;;;7.68;3.58;;;;;;;;;;4955390;29;20034;-93
2021/08/06 02:55:54;;;;;;;5.75;3.72;;;;;;;;;;4955669;29;20515;-95
2021/08/06 02:58:21;;;;;;;6.22;3.60;;;;;;;;;;4955875;28;20031;-95
2021/08/06 03:00:48;;;;;;;6.00;3.30;;;;;;;;;;4961655;29;20477;-95
2021/08/06 03:03:14;;;;;;;8.57;3.90;;;;;;;;;;4959920;29;20027;-95
2021/08/06 03:05:41;;;;;;;4.40;3.33;;;;;;;;;;4961226;29;20059;-95
2021/08/06 03:08:07;;;;;;;8.98;3.50;;;;;;;;;;4962296;29;20065;-95
2021/08/06 03:10:35;;;;;;;5.43;3.80;;;;;;;;;;4964248;28;20464;-95
2021/08/06 03:13:02;;;;;;;7.85;4.03;;;;;;;;;;4960146;29;20023;-94
2021/08/06 03:15:28;;;;;;;9.95;3.65;;;;;;;;;;4960208;29;20054;-94
2021/08/06 03:17:55;;;;;;;4.35;3.28;;;;;;;;;;4960580;29;20027;-94
2021/08/06 03:20:25;;;;;;;6.45;3.95;;;;;;;;;;4959520;29;20083;-95
2021/08/06 03:22:52;;;;;;;7.57;3.95;;;;;;;;;;4960165;29;20027;-96
2021/08/06 03:25:24;;;;;;;7.43;3.90;;;;;;;;;;4959440;29;20035;-94
2021/08/06 03:27:55;;;;;;;5.60;3.63;;;;;;;;;;4959330;29;20024;-94
2021/08/06 03:30:21;;;;;;;8.38;4.18;;;;;;;;;;4962521;29;20043;-93
2021/08/06 03:32:48;;;;;;;7.72;4.10;;;;;;;;;;4960589;29;20469;-96
2021/08/06 03:35:14;;;;;;;5.90;3.63;;;;;;;;;;4961554;29;20035;-96
2021/08/06 03:37:42;;;;;;;5.85;3.95;;;;;;;;;;4967763;29;20429;-94
2021/08/06 03:40:08;;;;;;;10.82;4.22;;;;;;;;;;4959282;29;20049;-93
2021/08/06 03:42:35;;;;;;;6.72;3.88;;;;;;;;;;4959001;29;20094;-95
2021/08/06 03:45:01;;;;;;;6.72;4.63;;;;;;;;;;4958601;29;20050;-94
2021/08/06 03:47:27;;;;;;;7.22;3.97;;;;;;;;;;4957963;29;20034;-94
2021/08/06 03:49:54;;;;;;;6.43;4.15;;;;;;;;;;4958573;29;20032;-96
2021/08/06 03:52:20;;;;;;;6.38;4.07;;;;;;;;;;4958566;29;20050;-93
2021/08/06 03:54:46;;;;;;;8.15;4.03;;;;;;;;;;4961521;29;20484;-94
2021/08/06 03:57:13;;;;;;;7.05;4.05;;;;;;;;;;4961650;29;20028;-95
2021/08/06 03:59:39;;;;;;;7.80;4.43;;;;;;;;;;4960351;29;20027;-95
2021/08/06 04:02:05;;;;;;;8.77;4.32;;;;;;;;;;4959574;29;20044;-96
2021/08/06 04:04:32;;;;;;;6.85;4.30;;;;;;;;;;4960830;29;20075;-95
2021/08/06 04:06:58;;;;;;;9.68;4.38;;;;;;;;;;4958581;29;20034;-94
2021/08/06 04:09:24;;;;;;;8.65;4.18;;;;;;;;;;4957820;29;20421;-90
2021/08/06 04:11:50;;;;;;;6.90;4.20;;;;;;;;;;4962754;28;20535;-85
2021/08/06 04:14:20;;;;;;;5.05;3.90;;;;;;;;;;4962825;29;20073;-95
2021/08/06 04:16:48;;;;;;;7.13;4.20;;;;;;;;;;4957956;29;20067;-93
2021/08/06 04:19:14;;;;;;;6.20;4.22;;;;;;;;;;4963049;29;20051;-96
2021/08/06 04:21:41;;;;;;;6.90;4.35;;;;;;;;;;4958879;29;20019;-95
2021/08/06 04:24:07;;;;;;;5.97;4.28;;;;;;;;;;4960292;29;20038;-96
2021/08/06 04:26:33;;;;;;;7.00;4.10;;;;;;;;;;4967893;29;20055;-95
2021/08/06 04:29:00;;;;;;;6.05;4.20;;;;;;;;;;4961943;29;20051;-95
2021/08/06 04:31:26;;;;;;;9.57;4.22;;;;;;;;;;4966036;29;20066;-93
2021/08/06 04:33:52;;;;;;;7.25;4.18;;;;;;;;;;4966546;29;20524;-92
2021/08/06 04:36:19;;;;;;;11.32;4.88;;;;;;;;;;4962084;29;20037;-95
2021/08/06 04:38:45;;;;;;;7.90;3.80;;;;;;;;;;4964148;29;20055;-94
2021/08/06 04:41:11;;;;;;;8.23;4.05;;;;;;;;;;4959868;29;20032;-94
2021/08/06 04:43:38;;;;;;;5.72;3.80;;;;;;;;;;4961729;29;20055;-95
2021/08/06 04:46:07;;;;;;;6.65;4.15;;;;;;;;;;4966383;29;20027;-95
2021/08/06 04:48:34;;;;;;;6.38;3.60;;;;;;;;;;4971640;29;20066;-95
2021/08/06 04:51:00;;;;;;;6.05;3.80;;;;;;;;;;4968877;29;20039;-92
2021/08/06 04:53:26;;;;;;;4.90;3.30;;;;;;;;;;4966743;29;20042;-94
2021/08/06 04:55:53;;;;;;;4.57;3.10;;;;;;;;;;4971839;29;20031;-95
2021/08/06 04:58:19;;;;;;;5.00;2.72;;;;;;;;;;4970186;29;20053;-95
2021/08/06 05:00:49;;;;;;;3.30;2.17;;;;;;;;;;4967919;29;20031;-96
2021/08/06 05:03:15;;;;;;;4.07;1.65;;;;;;;;;;4970572;29;20039;-95
2021/08/06 05:05:42;;;;;;;3.53;2.00;;;;;;;;;;4969640;29;20035;-96
2021/08/06 05:08:08;;;;;;;4.97;1.50;;;;;;;;;;4945018;28;20078;-91
2021/08/06 05:10:34;;;;;;;3.20;1.63;;;;;;;;;;4954650;29;20131;-90
2021/08/06 05:13:00;;;;;;;3.78;1.50;;;;;;;;;;4957308;28;20031;-89
2021/08/06 05:15:26;;;;;;;2.97;1.40;;;;;;;;;;4956250;29;20031;-88
2021/08/06 05:17:53;;;;;;;2.85;1.33;;;;;;;;;;4955441;29;20027;-88
2021/08/06 05:20:19;;;;;;;2.72;1.42;;;;;;;;;;4956245;29;20409;-92
2021/08/06 05:22:45;;;;;;;2.72;1.48;;;;;;;;;;4954997;28;20126;-86
2021/08/06 05:25:17;;;;;;;6.88;1.40;;;;;;;;;;4956065;29;20023;-88
2021/08/06 05:27:43;;;;;;;5.38;1.30;;;;;;;;;;4956136;29;20047;-88
2021/08/06 05:30:10;;;;;;;2.30;1.33;;;;;;;;;;4955000;29;20038;-90
2021/08/06 05:32:36;;;;;;;2.83;1.13;;;;;;;;;;4955297;28;20046;-88
2021/08/06 05:35:02;;;;;;;1.90;0.90;;;;;;;;;;4955195;29;20384;-86
2021/08/06 05:37:28;;;;;;;2.47;1.27;;;;;;;;;;4955014;28;20027;-87
2021/08/06 05:39:54;;;;;;;2.13;1.23;;;;;;;;;;4955824;28;20039;-90
2021/08/06 05:42:20;;;;;;;2.85;1.00;;;;;;;;;;4954955;28;20019;-87
2021/08/06 05:44:47;;;;;;;1.73;1.20;;;;;;;;;;4956028;28;20078;-88
2021/08/06 05:47:13;;;;;;;2.53;1.35;;;;;;;;;;4955639;28;20078;-86
2021/08/06 05:49:39;;;;;;;2.28;1.20;;;;;;;;;;4954947;28;20468;-88
2021/08/06 05:52:05;;;;;;;7.82;1.50;;;;;;;;;;4954630;28;20495;-84
2021/08/06 05:54:31;;;;;;;4.85;1.50;;;;;;;;;;4954424;28;20028;-88
2021/08/06 05:56:57;;;;;;;2.40;1.20;;;;;;;;;;4955423;28;20380;-86
2021/08/06 05:59:23;;;;;;;4.00;1.33;;;;;;;;;;4954526;28;20436;-88
2021/08/06 06:01:50;;;;;;;3.35;1.10;;;;;;;;;;4954270;28;20026;-87
2021/08/06 06:04:16;;;;;;;2.20;1.23;;;;;;;;;;4954546;29;20034;-87
2021/08/06 06:06:42;;;;;;;1.75;0.93;;;;;;;;;;4954443;28;20348;-87
2021/08/06 06:09:09;;;;;;;3.05;0.88;;;;;;;;;;4954469;29;20027;-87
2021/08/06 06:11:35;;;;;;;2.50;1.27;;;;;;;;;;4954247;29;20043;-87
2021/08/06 06:14:01;;;;;;;3.45;1.25;;;;;;;;;;4954307;29;20066;-90
2021/08/06 06:16:29;;;;;;;2.58;0.90;;;;;;;;;;4954981;29;20055;-87
2021/08/06 06:18:55;;;;;;;2.33;1.42;;;;;;;;;;4954239;29;20023;-87
2021/08/06 06:21:21;;;;;;;1.67;0.90;;;;;;;;;;4955008;29;20503;-88
2021/08/06 06:23:48;;;;;;;4.65;1.30;;;;;;;;;;4954716;29;20437;-90
2021/08/06 06:26:14;;;;;;;6.57;1.30;;;;;;;;;;4954772;29;20020;-91
2021/08/06 06:28:40;;;;;;;3.47;1.10;;;;;;;;;;4954776;29;20452;-88
2021/08/06 06:31:06;;;;;;;3.33;1.20;;;;;;;;;;4954049;29;20039;-90
2021/08/06 06:33:32;;;;;;;1.90;1.20;;;;;;;;;;4954218;28;20389;-83
2021/08/06 06:35:58;;;;;;;4.32;1.77;;;;;;;;;;4958423;29;20038;-87
2021/08/06 06:38:24;;;;;;;2.08;1.35;;;;;;;;;;4958485;29;20027;-89
2021/08/06 06:40:51;;;;;;;1.90;1.13;;;;;;;;;;4958231;29;20031;-88
2021/08/06 06:43:17;;;;;;;2.30;1.10;;;;;;;;;;4951451;28;20034;-87
2021/08/06 06:45:43;;;;;;;15.38;1.20;;;;;;;;;;4955901;29;20042;-86
2021/08/06 06:51:13;;;;;;;3.10;1.10;;;;;;;;;;5426558;23;20066;-88
2021/08/06 06:53:39;;;;;;;1.95;0.98;;;;;;;;;;4958621;29;20078;-87
2021/08/06 06:56:06;;;;;;;1.27;0.60;;;;;;;;;;4958852;29;20440;-89
2021/08/06 06:58:32;;;;;;;4.60;0.80;;;;;;;;;;4958138;29;20433;-87
2021/08/06 07:00:59;;;;;;;8.25;0.95;;;;;;;;;;4953772;29;20079;-90
2021/08/06 07:03:25;;;;;;;1.45;0.63;;;;;;;;;;4957836;29;20551;-88
2021/08/06 07:05:52;;;;;;;1.75;0.88;;;;;;;;;;4958346;29;20027;-86
2021/08/06 07:08:18;;;;;;;2.30;0.80;;;;;;;;;;4959935;29;20042;-86
2021/08/06 07:10:44;;;;;;;4.20;0.98;;;;;;;;;;4959343;29;20035;-87
2021/08/06 07:13:10;;;;;;;1.98;1.00;;;;;;;;;;4959392;29;20027;-88
2021/08/06 07:15:36;;;;;;;1.65;0.90;;;;;;;;;;4958315;29;20496;-83
2021/08/06 07:18:02;;;;;;;1.67;1.00;;;;;;;;;;4957701;29;20038;-89
2021/08/06 07:20:28;;;;;;;1.92;0.60;;;;;;;;;;4957659;29;20066;-84
2021/08/06 07:22:58;;;;;;;1.80;0.93;;;;;;;;;;4957818;29;20732;-89
2021/08/06 07:25:24;;;;;;;2.17;0.70;;;;;;;;;;4957913;29;20094;-89
2021/08/06 07:27:52;;;;;;;3.30;0.80;;;;;;;;;;4958612;29;20027;-87
2021/08/06 07:30:18;;;;;;;1.63;0.70;;;;;;;;;;4958188;29;20039;-87
2021/08/06 07:32:44;;;;;;;1.88;0.80;;;;;;;;;;4957070;29;20129;-89
2021/08/06 07:35:11;;;;;;;4.55;1.00;;;;;;;;;;4957219;29;20051;-86
2021/08/06 07:37:37;;;;;;;2.00;0.80;;;;;;;;;;4947900;29;20473;-88
2021/08/06 07:40:04;;;;;;;1.48;0.77;;;;;;;;;;4938086;29;20050;-88
2021/08/06 07:42:30;;;;;;;1.58;0.93;;;;;;;;;;4937925;29;20023;-87
2021/08/06 07:44:56;;;;;;;2.83;0.90;;;;;;;;;;4937526;29;20032;-86
2021/08/06 07:47:22;;;;;;;2.80;0.90;;;;;;;;;;4937694;29;20032;-88
2021/08/06 07:49:48;;;;;;;1.58;0.82;;;;;;;;;;4937842;29;20047;-88
2021/08/06 07:52:15;;;;;;;1.83;0.90;;;;;;;;;;4937668;29;20058;-85
2021/08/06 07:54:42;;;;;;;3.67;1.15;;;;;;;;;;4937719;29;20031;-89
2021/08/06 07:57:08;;;;;;;2.85;0.98;;;;;;;;;;4937782;29;20035;-84
2021/08/06 07:59:35;;;;;;;3.45;0.98;;;;;;;;;;4937422;29;20573;-88
2021/08/06 08:02:01;;;;;;;1.77;1.08;;;;;;;;;;4937839;29;20075;-88
2021/08/06 08:04:27;;;;;;;2.13;0.90;;;;;;;;;;4937444;29;20031;-88
2021/08/06 08:06:53;;;;;;;2.60;0.90;;;;;;;;;;4939002;29;20027;-89
2021/08/06 08:09:19;;;;;;;1.08;0.65;;;;;;;;;;4937544;29;20059;-87
2021/08/06 08:11:45;;;;;;;3.03;0.80;;;;;;;;;;4937506;29;20040;-86
2021/08/06 08:14:12;;;;;;;2.60;0.80;;;;;;;;;;4937177;29;20035;-84
2021/08/06 08:16:38;;;;;;;1.08;0.60;;;;;;;;;;4937057;29;20030;-87
2021/08/06 08:19:04;;;;;;;1.20;0.50;;;;;;;;;;4937426;29;20481;-89
2021/08/06 08:21:30;;;;;;;1.27;0.60;;;;;;;;;;4937341;29;20028;-86
2021/08/06 08:23:56;;;;;;;3.15;0.80;;;;;;;;;;4937145;29;20153;-88
2021/08/06 08:26:23;;;;;;;1.00;0.50;;;;;;;;;;4937154;29;20032;-88
2021/08/06 08:28:49;;;;;;;1.60;0.90;;;;;;;;;;4936803;29;20056;-87
2021/08/06 08:31:17;;;;;;;2.17;0.57;;;;;;;;;;4936770;29;20036;-86
2021/08/06 08:33:43;;;;;;;2.88;0.73;;;;;;;;;;4937220;29;20481;-91
2021/08/06 08:36:09;;;;;;;1.58;0.85;;;;;;;;;;4936843;29;20032;-89
2021/08/06 08:38:35;;;;;;;6.88;1.02;;;;;;;;;;4937104;29;20389;-88
2021/08/06 08:41:03;;;;;;;1.60;0.82;;;;;;;;;;4938433;29;20059;-88
2021/08/06 08:43:29;;;;;;;1.67;0.75;;;;;;;;;;4936686;29;20028;-86
2021/08/06 08:45:56;;;;;;;1.45;0.70;;;;;;;;;;4936951;29;20024;-89
2021/08/06 08:48:23;;;;;;;2.08;0.82;;;;;;;;;;4936873;29;20031;-90
2021/08/06 08:50:52;;;;;;;2.25;0.73;;;;;;;;;;4936512;29;20541;-88
2021/08/06 08:53:18;;;;;;;4.18;1.10;;;;;;;;;;4936673;29;20393;-91
2021/08/06 08:55:44;;;;;;;3.17;0.80;;;;;;;;;;4936992;29;20027;-90
2021/08/06 08:58:11;;;;;;;1.13;0.57;;;;;;;;;;4935813;29;20487;-89
2021/08/06 09:00:37;;;;;;;2.55;0.40;;;;;;;;;;4936664;29;20114;-84
2021/08/06 09:03:03;;;;;;;1.88;0.60;;;;;;;;;;4936630;29;20396;-90
2021/08/06 09:05:29;;;;;;;1.50;0.50;;;;;;;;;;4936617;29;20064;-88
2021/08/06 09:07:56;;;;;;;1.45;0.80;;;;;;;;;;4936706;29;20091;-84
2021/08/06 09:10:24;;;;;;;6.75;0.77;;;;;;;;;;4940614;29;20485;-85
2021/08/06 09:12:52;;;;;;;1.27;0.60;;;;;;;;;;4936692;29;20031;-91
2021/08/06 09:15:19;;;;;;;1.73;0.50;;;;;;;;;;4937978;29;20034;-89
2021/08/06 09:17:45;;;;;;;1.90;0.68;;;;;;;;;;4936635;29;20051;-92
2021/08/06 09:20:13;;;;;;;1.45;0.65;;;;;;;;;;4937555;29;20039;-89
2021/08/06 09:22:40;;;;;;;1.23;0.60;;;;;;;;;;4936481;29;20079;-89
2021/08/06 09:25:10;;;;;;;1.33;0.80;;;;;;;;;;4936184;29;20032;-85
2021/08/06 09:27:37;;;;;;;2.40;0.70;;;;;;;;;;4936037;29;20024;-91
2021/08/06 09:30:06;;;;;;;1.83;0.60;;;;;;;;;;4936115;29;20047;-85
2021/08/06 09:32:53;;;;;;;1.25;0.60;;;;;;;;;;4936080;29;20075;-87
2021/08/06 09:35:20;;;;;;;3.95;0.80;;;;;;;;;;4936193;29;20485;-84
2021/08/06 09:37:46;;;;;;;3.53;0.82;;;;;;;;;;4936087;29;20393;-86
2021/08/06 09:40:14;;;;;;;1.58;0.70;;;;;;;;;;4936438;29;20032;-92
2021/08/06 09:42:46;;;;;;;1.88;0.80;;;;;;;;;;4936301;29;20028;-91
2021/08/06 09:45:14;;;;;;;1.20;0.60;;;;;;;;;;4937459;29;20190;-92
2021/08/06 09:47:41;;;;;;;3.65;0.85;;;;;;;;;;4936336;29;20024;-91
2021/08/06 09:50:09;;;;;;;1.33;0.52;;;;;;;;;;4935919;29;20035;-91
2021/08/06 09:52:38;;;;;;;1.20;0.70;;;;;;;;;;4936154;29;20039;-93
2021/08/06 09:55:05;;;;;;;1.17;0.60;;;;;;;;;;4936052;29;20051;-90
2021/08/06 09:57:32;;;;;;;3.78;1.00;;;;;;;;;;4936061;29;20437;-89
2021/08/06 09:59:59;;;;;;;3.50;0.90;;;;;;;;;;4936319;29;20115;-92
2021/08/06 10:02:30;;;;;;;1.33;0.70;;;;;;;;;;4936211;29;20027;-91
2021/08/06 10:04:56;;;;;;;1.45;0.73;;;;;;;;;;4937322;29;20038;-89
2021/08/06 10:07:23;;;;;;;2.03;0.80;;;;;;;;;;4936432;29;20087;-88
2021/08/06 10:09:49;;;;;;;6.30;0.85;;;;;;;;;;4935808;29;20024;-86
2021/08/06 10:12:16;;;;;;;1.38;0.73;;;;;;;;;;4936276;29;20035;-87
2021/08/06 10:14:42;;;;;;;3.05;0.80;;;;;;;;;;4936130;29;20458;-89
2021/08/06 10:17:10;;;;;;;4.22;0.50;;;;;;;;;;4935943;29;20055;-91
2021/08/06 10:19:36;;;;;;;1.67;0.70;;;;;;;;;;4935959;29;20027;-89
2021/08/06 10:22:03;;;;;;;1.15;0.70;;;;;;;;;;4936460;29;20031;-88
2021/08/06 10:24:30;;;;;;;2.58;0.68;;;;;;;;;;4936801;29;20031;-89
2021/08/06 10:26:56;;;;;;;1.33;0.80;;;;;;;;;;4941495;29;20043;-91
2021/08/06 10:29:23;;;;;;;4.85;0.70;;;;;;;;;;4935442;29;20122;-91
2021/08/06 10:32:08;;;;;;;0.93;0.52;;;;;;;;;;4935408;29;20066;-90
2021/08/06 10:34:34;;;;;;;2.30;0.90;;;;;;;;;;4935813;29;20485;-86
2021/08/06 10:37:00;;;;;;;1.15;0.57;;;;;;;;;;4935670;29;20115;-90
2021/08/06 10:39:27;;;;;;;2.83;0.70;;;;;;;;;;4935615;29;20055;-89
2021/08/06 10:41:53;;;;;;;1.92;0.70;;;;;;;;;;4936915;29;20071;-87
2021/08/06 10:44:20;;;;;;;2.38;0.90;;;;;;;;;;4935301;29;20036;-86
2021/08/06 10:46:56;;;;;;;2.10;0.90;;;;;;;;;;4935474;29;20020;-85
2021/08/06 10:49:23;;;;;;;1.52;0.80;;;;;;;;;;4935703;29;20536;-86
2021/08/06 10:51:49;;;;;;;3.53;0.70;;;;;;;;;;4935153;29;20127;-89
2021/08/06 10:54:28;;;;;;;1.48;0.68;;;;;;;;;;4935526;29;20028;-89
2021/08/06 10:57:13;;;;;;;1.73;0.80;;;;;;;;;;4935143;29;20525;-91
2021/08/06 10:59:40;;;;;;;1.70;0.80;;;;;;;;;;4935837;29;20493;-86
2021/08/06 11:02:06;;;;;;;4.22;1.00;;;;;;;;;;4935249;29;20028;-85
2021/08/06 11:04:32;;;;;;;1.95;0.85;;;;;;;;;;4935109;29;20119;-91
2021/08/06 11:07:02;;;;;;;2.33;0.90;;;;;;;;;;4935723;29;20019;-90
2021/08/06 11:09:34;;;;;;;1.98;0.95;;;;;;;;;;4935621;29;20409;-83
2021/08/06 11:12:10;;;;;;;2.00;1.00;;;;;;;;;;4935880;29;20115;-85
2021/08/06 11:14:37;;;;;;;1.45;0.88;;;;;;;;;;4936092;29;20540;-81
2021/08/06 11:17:04;;;;;;;2.00;1.00;;;;;;;;;;4934727;29;20031;-82
2021/08/06 11:19:32;;;;;;;2.08;0.82;;;;;;;;;;4934392;29;20491;-84
2021/08/06 11:21:59;;;;;;;5.15;1.08;;;;;;;;;;4938069;29;20122;-91
2021/08/06 11:24:26;;;;;;;1.55;0.80;;;;;;;;;;4939079;29;20043;-88
2021/08/06 11:26:52;;;;;;;2.60;0.95;;;;;;;;;;4939494;29;20082;-84
2021/08/06 11:29:19;;;;;;;1.60;0.90;;;;;;;;;;4938469;29;20430;-83
2021/08/06 11:31:46;;;;;;;3.50;1.00;;;;;;;;;;4937738;29;20511;-90
2021/08/06 11:34:12;;;;;;;1.65;0.90;;;;;;;;;;4938149;29;20030;-91
2021/08/06 11:36:38;;;;;;;1.70;0.90;;;;;;;;;;4939791;29;20027;-84
2021/08/06 11:39:15;;;;;;;1.83;1.00;;;;;;;;;;4957062;29;20118;-84
2021/08/06 11:41:52;;;;;;;2.40;1.00;;;;;;;;;;4958192;29;20058;-84
2021/08/06 11:44:18;;;;;;;1.80;1.00;;;;;;;;;;4957625;29;20027;-92
2021/08/06 11:46:54;;;;;;;2.85;1.00;;;;;;;;;;4957853;29;20035;-92
2021/08/06 11:49:21;;;;;;;2.17;1.15;;;;;;;;;;4957878;29;20477;-94
2021/08/06 11:51:52;;;;;;;1.73;0.90;;;;;;;;;;4956668;29;20058;-84
2021/08/06 11:54:18;;;;;;;1.80;1.00;;;;;;;;;;4956838;29;20037;-87
2021/08/06 11:56:46;;;;;;;2.03;1.00;;;;;;;;;;4957365;29;20383;-84
2021/08/06 11:59:12;;;;;;;1.70;1.00;;;;;;;;;;4957442;29;20136;-85
2021/08/06 12:01:38;;;;;;;1.75;0.93;;;;;;;;;;4958009;29;20027;-92
2021/08/06 12:04:04;;;;;;;2.67;1.10;;;;;;;;;;4957397;29;20031;-94
2021/08/06 12:06:32;;;;;;;1.90;1.10;;;;;;;;;;4957217;29;20114;-85
2021/08/06 12:08:58;;;;;;;3.30;1.08;;;;;;;;;;4957269;29;20089;-88
2021/08/06 12:11:26;;;;;;;1.90;1.10;;;;;;;;;;4956649;29;20131;-85
2021/08/06 12:13:52;;;;;;;3.75;1.40;;;;;;;;;;4956651;29;20031;-84
2021/08/06 12:16:23;;;;;;;2.05;1.17;;;;;;;;;;4958539;29;20027;-92
2021/08/06 12:18:53;;;;;;;3.38;1.10;;;;;;;;;;4959073;29;20038;-91
2021/08/06 12:21:30;;;;;;;1.60;0.90;;;;;;;;;;4957124;29;20031;-91
2021/08/06 12:24:01;;;;;;;2.88;1.02;;;;;;;;;;4957064;29;20035;-88
2021/08/06 12:26:33;;;;;;;1.90;1.08;;;;;;;;;;4956904;29;20027;-94
2021/08/06 12:29:16;;;;;;;1.90;1.00;;;;;;;;;;4957000;29;20102;-92
2021/08/06 12:31:53;;;;;;;1.70;0.90;;;;;;;;;;4956662;28;20062;-89
2021/08/06 12:34:27;;;;;;;2.88;1.05;;;;;;;;;;4956954;29;20019;-86
2021/08/06 12:37:02;;;;;;;6.38;1.02;;;;;;;;;;4956502;29;20027;-92
2021/08/06 12:39:30;;;;;;;2.42;1.13;;;;;;;;;;4956662;29;20042;-88
2021/08/06 12:42:09;;;;;;;2.85;1.20;;;;;;;;;;4956606;29;20464;-93
2021/08/06 12:44:35;;;;;;;3.55;1.48;;;;;;;;;;4956649;29;20027;-93
2021/08/06 12:47:18;;;;;;;2.40;1.33;;;;;;;;;;4956429;29;20532;-93
2021/08/06 12:49:55;;;;;;;3.88;1.40;;;;;;;;;;4956182;29;20078;-88
2021/08/06 12:52:21;;;;;;;7.45;1.33;;;;;;;;;;4963243;28;20098;-92
2021/08/06 12:55:06;;;;;;;5.05;1.30;;;;;;;;;;4975595;28;20019;-88
2021/08/06 12:57:51;;;;;;;2.25;1.00;;;;;;;;;;4975747;28;20026;-95
2021/08/06 13:00:25;;;;;;;2.67;1.30;;;;;;;;;;4976439;28;20117;-91
2021/08/06 13:02:59;;;;;;;2.90;1.48;;;;;;;;;;4977974;28;20062;-89
2021/08/06 13:05:25;;;;;;;2.35;1.27;;;;;;;;;;4994757;28;20023;-91
2021/08/06 13:07:51;;;;;;;2.50;1.17;;;;;;;;;;4981472;28;20042;-85
2021/08/06 13:10:25;;;;;;;4.60;1.58;;;;;;;;;;4976836;28;20042;-85
2021/08/06 13:12:51;;;;;;;9.25;1.42;;;;;;;;;;4975610;28;20027;-87
2021/08/06 13:15:17;;;;;;;2.88;1.38;;;;;;;;;;4975416;28;20027;-93
2021/08/06 13:17:43;;;;;;;1.92;1.20;;;;;;;;;;4975937;28;20034;-89
2021/08/06 13:20:10;;;;;;;3.45;1.30;;;;;;;;;;4975361;28;20031;-89
2021/08/06 13:22:36;;;;;;;2.58;1.20;;;;;;;;;;4975786;28;20023;-93
2021/08/06 13:25:02;;;;;;;3.00;1.42;;;;;;;;;;4976865;28;20050;-93
2021/08/06 13:27:28;;;;;;;3.05;1.35;;;;;;;;;;4976171;28;20030;-92
2021/08/06 13:29:54;;;;;;;2.33;1.30;;;;;;;;;;4975313;28;20460;-93
2021/08/06 13:32:20;;;;;;;2.10;1.30;;;;;;;;;;4975504;28;20047;-94
2021/08/06 13:34:46;;;;;;;8.60;1.63;;;;;;;;;;4975040;28;20027;-94
2021/08/06 13:37:13;;;;;;;5.82;1.50;;;;;;;;;;4975355;28;20030;-93
2021/08/06 13:39:39;;;;;;;6.90;1.70;;;;;;;;;;4962862;28;20027;-92
2021/08/06 13:42:06;;;;;;;2.88;1.60;;;;;;;;;;4976212;28;20114;-92
2021/08/06 13:44:32;;;;;;;2.45;1.45;;;;;;;;;;4974845;28;20085;-90
2021/08/06 13:46:58;;;;;;;4.40;1.35;;;;;;;;;;4974664;28;20106;-82
2021/08/06 13:49:24;;;;;;;1.67;0.93;;;;;;;;;;4962913;28;20114;-90
2021/08/06 13:51:51;;;;;;;3.90;1.30;;;;;;;;;;4955396;29;20063;-82
2021/08/06 13:54:18;;;;;;;4.40;1.05;;;;;;;;;;4955679;29;20085;-89
2021/08/06 13:56:44;;;;;;;1.58;0.88;;;;;;;;;;4955199;29;20031;-90
2021/08/06 13:59:10;;;;;;;2.50;0.77;;;;;;;;;;4956223;29;20027;-90
2021/08/06 14:01:36;;;;;;;5.85;0.95;;;;;;;;;;4955276;29;20071;-90
2021/08/06 14:04:02;;;;;;;2.35;1.00;;;;;;;;;;4954844;29;20035;-86
2021/08/06 14:06:29;;;;;;;3.00;0.90;;;;;;;;;;4956669;29;20113;-92
2021/08/06 14:08:55;;;;;;;1.88;0.88;;;;;;;;;;4957165;29;20034;-92
2021/08/06 14:11:21;;;;;;;5.03;0.98;;;;;;;;;;4957086;29;20043;-91
2021/08/06 14:13:47;;;;;;;6.45;1.20;;;;;;;;;;4956371;29;20468;-91
2021/08/06 14:16:13;;;;;;;1.80;0.95;;;;;;;;;;4956216;29;20037;-87
2021/08/06 14:18:40;;;;;;;2.85;0.88;;;;;;;;;;4959095;29;20070;-90
2021/08/06 14:21:06;;;;;;;1.75;0.90;;;;;;;;;;4955817;29;20035;-91
2021/08/06 14:23:34;;;;;;;2.65;1.10;;;;;;;;;;4956833;29;20028;-90
2021/08/06 14:26:01;;;;;;;2.88;1.13;;;;;;;;;;4955277;29;20027;-92
2021/08/06 14:28:27;;;;;;;2.20;1.00;;;;;;;;;;4955139;29;20020;-89
2021/08/06 14:30:53;;;;;;;2.10;1.20;;;;;;;;;;4955089;29;20043;-84
2021/08/06 14:33:19;;;;;;;9.27;0.82;;;;;;;;;;4955300;29;20031;-90
2021/08/06 14:35:45;;;;;;;4.15;0.70;;;;;;;;;;4955703;29;20041;-83
2021/08/06 14:38:12;;;;;;;3.22;0.90;;;;;;;;;;4955067;29;20036;-89
2021/08/06 14:40:38;;;;;;;2.40;0.80;;;;;;;;;;4954784;29;20042;-91
2021/08/06 14:43:04;;;;;;;3.85;0.75;;;;;;;;;;4954738;29;20027;-89
2021/08/06 14:45:30;;;;;;;1.45;0.60;;;;;;;;;;4954824;29;20118;-90
2021/08/06 14:47:56;;;;;;;2.20;0.60;;;;;;;;;;4955066;29;20023;-89